Time;durP1;ratioP1;P1;durP2;ratioP2;P2;SDS_P1;SDS_P2;PMS_P1;PMS_P2;Temp;Humidity;BMP_temperature;BMP_pressure;BME280_temperature;BME280_humidity;BME280_pressure;Samples;Min_cycle;Max_cycle;Signal;HPM_P1;HPM_P2
2022/01/22 00:00:32;;;;;;;;;;;;;;;3.78;91.91;102578.59;5057559;27;20150;-67
2022/01/22 00:02:57;;;;;;;;;;;;;;;3.77;92.05;102589.13;5057985;27;20271;-69
2022/01/22 00:05:22;;;;;;;;;;;;;;;3.93;90.35;102587.75;5037175;27;20291;-69
2022/01/22 00:07:48;;;;;;;;;;;;;;;3.83;90.50;102578.44;5018270;27;20348;-69
2022/01/22 00:10:19;;;;;;;;;;;;;;;3.81;90.54;102582.88;5037333;27;20281;-67
2022/01/22 00:13:06;;;;;;;;;;;;;;;3.82;90.81;102570.63;5034607;27;21003;-67
2022/01/22 00:15:30;;;;;;;;;;;;;;;3.85;90.12;102579.25;5040256;27;20333;-68
2022/01/22 00:17:56;;;;;;;;;;;;;;;4.00;89.39;102583.13;5017302;27;20846;-69
2022/01/22 00:20:22;;;;;;;;;;;;;;;3.95;88.68;102585.06;5054881;27;19903;-67
2022/01/22 00:22:48;;;;;;;;;;;;;;;3.91;89.61;102580.84;5025239;27;19965;-66
2022/01/22 00:25:14;;;;;;;;;;;;;;;3.86;90.48;102574.88;5036491;27;19911;-69
2022/01/22 00:27:39;;;;;;;;;;;;;;;3.94;90.93;102586.81;5052858;27;20075;-69
2022/01/22 00:30:05;;;;;;;;;;;;;;;3.92;90.90;102574.66;5036095;27;20015;-67
2022/01/22 00:32:31;;;;;;;;;;;;;;;3.92;90.83;102574.66;5037130;27;19944;-70
2022/01/22 00:34:56;;;;;;;;;;;;;;;3.90;90.12;102586.97;5017205;27;19904;-67
2022/01/22 00:37:21;;;;;;;;;;;;;;;3.90;90.81;102573.88;5027487;27;19921;-67
2022/01/22 00:39:46;;;;;;;;;;;;;;;3.94;90.82;102575.50;5025696;27;19907;-68
2022/01/22 00:42:14;;;;;;;;;;;;;;;3.87;89.93;102574.81;5049287;27;20330;-68
2022/01/22 00:44:39;;;;;;;;;;;;;;;3.80;90.12;102570.69;5039208;27;20016;-68
2022/01/22 00:47:05;;;;;;;;;;;;;;;3.90;90.13;102574.72;5075616;27;19914;-68
2022/01/22 00:49:30;;;;;;;;;;;;;;;3.84;90.50;102581.94;5073062;27;19946;-69
2022/01/22 00:51:55;;;;;;;;;;;;;;;3.89;91.01;102577.38;5027507;27;20007;-68
2022/01/22 00:54:20;;;;;;;;;;;;;;;3.95;90.53;102572.81;5034283;27;19923;-67
2022/01/22 00:56:46;;;;;;;;;;;;;;;3.89;89.95;102585.25;5035260;27;19970;-68
2022/01/22 00:59:11;;;;;;;;;;;;;;;3.85;90.48;102581.88;5054316;27;20081;-69
2022/01/22 01:01:36;;;;;;;;;;;;;;;3.90;90.49;102576.50;5054891;27;19907;-69
2022/01/22 01:04:03;;;;;;;;;;;;;;;3.92;90.63;102580.78;5057843;27;20068;-69
2022/01/22 01:06:28;;;;;;;;;;;;;;;3.98;90.23;102581.47;5049574;27;19992;-67
2022/01/22 01:08:53;;;;;;;;;;;;;;;3.94;90.50;102578.09;5026680;27;19919;-67
2022/01/22 01:11:19;;;;;;;;;;;;;;;4.02;90.08;102586.59;5035352;27;19911;-69
2022/01/22 01:13:48;;;;;;;;;;;;;;;3.95;89.66;102571.97;5035044;27;19919;-67
2022/01/22 01:16:44;;;;;;;;;;;;;;;3.95;89.77;102574.59;5017902;27;20069;-67
2022/01/22 01:35:08;;;;;;;;;;;;;;;3.84;90.85;102576.69;5051534;27;19911;-68
2022/01/22 01:37:33;;;;;;;;;;;;;;;3.93;90.53;102576.38;5044230;27;19911;-69
2022/01/22 01:40:03;;;;;;;;;;;;;;;3.87;90.46;102576.59;5040431;27;19936;-67
2022/01/22 01:43:18;;;;;;;;;;;;;;;3.90;90.42;102566.84;5046849;27;20306;-68
2022/01/22 01:45:17;;;;;;;;;;;;;;;3.75;90.65;102578.69;5042172;27;19996;-68
2022/01/22 01:47:45;;;;;;;;;;;;;;;3.81;90.61;102566.28;5054194;27;19925;-67
2022/01/22 01:50:10;;;;;;;;;;;;;;;3.74;90.65;102569.09;5034304;27;20346;-69
2022/01/22 01:52:44;;;;;;;;;;;;;;;3.73;91.29;102572.63;5028533;27;20040;-67
2022/01/22 01:55:20;;;;;;;;;;;;;;;3.85;90.74;102565.28;5050590;27;19987;-67
2022/01/22 01:57:46;;;;;;;;;;;;;;;3.72;90.82;102560.47;5053993;27;20851;-68
2022/01/22 02:00:11;;;;;;;;;;;;;;;3.72;90.78;102573.56;5017578;27;19911;-68
2022/01/22 02:02:38;;;;;;;;;;;;;;;3.69;90.91;102565.75;5052752;27;20447;-67
2022/01/22 02:05:03;;;;;;;;;;;;;;;3.72;90.97;102562.19;5054805;27;19906;-68
2022/01/22 02:07:28;;;;;;;;;;;;;;;3.72;91.11;102568.31;5045362;27;19911;-67
2022/01/22 02:09:54;;;;;;;;;;;;;;;3.72;91.46;102563.06;5032250;27;20732;-67
2022/01/22 02:23:33;;;;;;;;;;;;;;;3.68;92.17;102565.81;5028685;27;20297;-67
2022/01/22 02:25:59;;;;;;;;;;;;;;;3.59;92.75;102566.97;5020392;27;19908;-69
2022/01/22 02:28:24;;;;;;;;;;;;;;;3.52;93.00;102558.44;5053052;27;19915;-69
2022/01/22 02:30:55;;;;;;;;;;;;;;;3.58;93.01;102554.75;5051410;27;20679;-69
2022/01/22 02:35:51;;;;;;;;;;;;;;;3.68;93.74;102561.47;5032758;27;19919;-70
2022/01/22 02:38:23;;;;;;;;;;;;;;;3.53;93.48;102567.16;5031960;27;19972;-67
2022/01/22 02:40:49;;;;;;;;;;;;;;;3.54;94.12;102556.63;5029957;28;19927;-69
2022/01/22 02:43:15;;;;;;;;;;;;;;;3.55;94.41;102554.88;5049135;27;19912;-68
2022/01/22 02:45:41;;;;;;;;;;;;;;;3.57;93.94;102547.84;5055228;27;19915;-68
2022/01/22 02:48:06;;;;;;;;;;;;;;;3.51;94.19;102542.78;5038231;27;19908;-67
2022/01/22 02:50:31;;;;;;;;;;;;;;;3.57;94.44;102551.31;5052576;27;20563;-68
2022/01/22 02:53:00;;;;;;;;;;;;;;;3.62;94.32;102545.91;5052579;27;20143;-68
2022/01/22 02:55:26;;;;;;;;;;;;;;;3.50;94.18;102538.44;5051385;27;19944;-68
2022/01/22 02:57:51;;;;;;;;;;;;;;;3.50;94.35;102547.16;5053422;27;20816;-68
2022/01/22 03:00:17;;;;;;;;;;;;;;;3.51;94.51;102548.00;5052661;27;19910;-69
2022/01/22 03:02:43;;;;;;;;;;;;;;;3.56;94.41;102544.34;5033120;27;20403;-69
2022/01/22 03:05:08;;;;;;;;;;;;;;;3.67;94.06;102545.78;5031652;27;19904;-68
2022/01/22 03:07:35;;;;;;;;;;;;;;;3.61;93.66;102544.22;5043610;27;19907;-68
2022/01/22 03:10:02;;;;;;;;;;;;;;;3.62;93.86;102551.16;5051658;27;20065;-68
2022/01/22 03:27:49;;;;;;;;;;;;;;;3.58;94.27;102554.75;5032483;27;20421;-65
2022/01/22 03:30:14;;;;;;;;;;;;;;;3.70;94.20;102554.41;5035140;27;19907;-67
2022/01/22 03:32:43;;;;;;;;;;;;;;;3.87;93.76;102555.66;5020590;27;19918;-67
2022/01/22 03:35:12;;;;;;;;;;;;;;;3.77;93.53;102555.91;5019740;27;20120;-67
2022/01/22 03:37:38;;;;;;;;;;;;;;;3.66;93.65;102544.91;5020510;27;19919;-66
2022/01/22 03:40:03;;;;;;;;;;;;;;;3.81;93.00;102542.72;5049031;27;19907;-69
2022/01/22 03:42:28;;;;;;;;;;;;;;;3.81;93.22;102550.56;5018723;27;20467;-69
2022/01/22 03:44:54;;;;;;;;;;;;;;;3.81;93.19;102551.44;5018980;27;20821;-69
2022/01/22 03:47:19;;;;;;;;;;;;;;;3.78;93.33;102552.41;5036925;27;19926;-69
2022/01/22 03:49:44;;;;;;;;;;;;;;;3.65;93.73;102548.44;5035846;27;19960;-68
2022/01/22 03:52:10;;;;;;;;;;;;;;;3.77;93.44;102550.69;5036554;27;19911;-68
2022/01/22 03:54:35;;;;;;;;;;;;;;;4.01;93.00;102557.81;5036418;27;19942;-67
2022/01/22 03:57:00;;;;;;;;;;;;;;;3.91;91.88;102568.59;5031593;27;19903;-67
2022/01/22 03:59:28;;;;;;;;;;;;;;;3.88;92.37;102555.59;5037145;27;20027;-68
2022/01/22 04:04:23;;;;;;;;;;;;;;;3.83;92.50;102567.97;5035442;27;19941;-67
2022/01/22 04:09:16;;;;;;;;;;;;;;;3.90;93.50;102571.25;5033299;27;20012;-67
2022/01/22 04:11:44;;;;;;;;;;;;;;;3.89;93.09;102562.56;5029862;27;19912;-67
2022/01/22 04:14:17;;;;;;;;;;;;;;;3.86;92.78;102569.63;5035663;27;20033;-68
2022/01/22 04:16:56;;;;;;;;;;;;;;;3.80;93.03;102564.59;5032587;27;19904;-67
2022/01/22 04:24:51;;;;;;;;;;;;;;;3.82;93.26;102562.78;5035875;27;20065;-67
2022/01/22 04:27:21;;;;;;;;;;;;;;;3.90;92.99;102558.16;5033343;27;19903;-67
2022/01/22 04:29:47;;;;;;;;;;;;;;;3.96;93.00;102557.94;5039757;27;20391;-69
2022/01/22 04:32:12;;;;;;;;;;;;;;;3.98;92.71;102552.66;5036736;27;19903;-67
2022/01/22 04:34:37;;;;;;;;;;;;;;;3.74;92.85;102558.63;5035785;27;19985;-69
2022/01/22 04:37:03;;;;;;;;;;;;;;;3.88;93.09;102552.97;5026816;27;19915;-67
2022/01/22 04:39:28;;;;;;;;;;;;;;;3.83;93.43;102554.88;5037820;27;20773;-67
2022/01/22 04:41:55;;;;;;;;;;;;;;;3.91;93.29;102562.50;5032961;27;19907;-67
2022/01/22 04:44:23;;;;;;;;;;;;;;;3.84;93.15;102555.75;5049689;27;19908;-69
2022/01/22 04:46:57;;;;;;;;;;;;;;;3.90;93.67;102566.00;4999306;28;20194;-69
2022/01/22 04:57:18;;;;;;;;;;;;;;;3.81;93.65;102568.91;5015318;27;19907;-68
2022/01/22 04:59:43;;;;;;;;;;;;;;;3.73;94.41;102570.00;5013597;27;19907;-68
2022/01/22 05:02:09;;;;;;;;;;;;;;;3.76;94.97;102567.28;5031511;27;20380;-67
2022/01/22 05:04:34;;;;;;;;;;;;;;;3.69;95.13;102562.31;5011679;27;20293;-69
2022/01/22 05:06:59;;;;;;;;;;;;;;;3.74;95.33;102563.88;5032610;27;19923;-67
2022/01/22 05:09:24;;;;;;;;;;;;;;;3.78;95.49;102568.13;5013777;27;20535;-68
2022/01/22 05:11:49;;;;;;;;;;;;;;;3.81;95.24;102559.31;4994930;27;20014;-67
2022/01/22 05:14:15;;;;;;;;;;;;;;;3.83;95.31;102560.09;5013144;27;20040;-68
2022/01/22 05:16:40;;;;;;;;;;;;;;;3.86;95.27;102557.38;5015337;27;19907;-70
2022/01/22 05:19:13;;;;;;;;;;;;;;;3.94;95.17;102554.53;5033463;27;19960;-68
2022/01/22 05:21:39;;;;;;;;;;;;;;;3.87;95.31;102553.03;5014847;27;19979;-68
2022/01/22 05:24:09;;;;;;;;;;;;;;;3.89;94.86;102559.94;5029070;27;19904;-67
2022/01/22 05:32:20;;;;;;;;;;;;;;;3.89;94.75;102551.19;5007327;27;19933;-67
2022/01/22 05:37:24;;;;;;;;;;;;;;;3.92;94.58;102553.72;5031815;27;20009;-66
2022/01/22 05:39:49;;;;;;;;;;;;;;;3.87;94.80;102555.66;5014002;27;19911;-69
2022/01/22 05:42:14;;;;;;;;;;;;;;;4.02;94.37;102556.91;5034366;27;20000;-65
2022/01/22 05:44:41;;;;;;;;;;;;;;;4.05;94.24;102555.06;5024587;27;20198;-68
2022/01/22 05:47:06;;;;;;;;;;;;;;;4.00;95.09;102561.34;5024233;27;20518;-68
2022/01/22 05:49:34;;;;;;;;;;;;;;;3.97;95.35;102556.22;5034566;27;20219;-69
2022/01/22 05:52:02;;;;;;;;;;;;;;;3.99;95.20;102555.25;5023492;27;19995;-68
2022/01/22 05:59:37;;;;;;;;;;;;;;;4.20;93.95;102565.94;5031556;27;20363;-69
2022/01/22 06:02:03;;;;;;;;;;;;;;;4.07;94.34;102566.31;5029855;27;20318;-68
2022/01/22 06:04:29;;;;;;;;;;;;;;;4.08;94.61;102565.44;5034365;27;19918;-67
2022/01/22 06:06:54;;;;;;;;;;;;;;;4.05;95.20;102575.16;5032895;27;19997;-68
2022/01/22 06:09:19;;;;;;;;;;;;;;;4.21;94.89;102575.50;5034510;27;20028;-68
2022/01/22 06:12:03;;;;;;;;;;;;;;;4.17;94.24;102573.91;5031879;27;19941;-68
2022/01/22 06:14:29;;;;;;;;;;;;;;;4.08;94.41;102586.38;5032129;27;20178;-68
2022/01/22 06:16:54;;;;;;;;;;;;;;;4.06;95.07;102582.97;5029340;27;20446;-69
2022/01/22 06:19:19;;;;;;;;;;;;;;;4.02;95.49;102581.34;5028519;27;19913;-66
2022/01/22 06:21:44;;;;;;;;;;;;;;;4.06;95.15;102582.97;5022358;27;19967;-69
2022/01/22 06:24:12;;;;;;;;;;;;;;;4.08;94.80;102581.16;5018784;27;20869;-68
2022/01/22 06:26:37;;;;;;;;;;;;;;;3.99;95.32;102589.31;5011200;28;19919;-69
2022/01/22 06:29:03;;;;;;;;;;;;;;;4.03;95.64;102597.91;5044987;27;20077;-68
2022/01/22 06:31:28;;;;;;;;;;;;;;;4.07;95.98;102594.28;5050829;27;19907;-68
2022/01/22 06:33:53;;;;;;;;;;;;;;;4.10;95.47;102592.44;5048481;27;19933;-68
2022/01/22 06:36:18;;;;;;;;;;;;;;;4.19;95.58;102598.28;5048105;27;19907;-67
2022/01/22 06:38:44;;;;;;;;;;;;;;;4.17;95.21;102600.09;5031731;28;19957;-67
2022/01/22 06:43:53;;;;;;;;;;;;;;;4.15;95.37;102599.31;5030204;28;20225;-67
2022/01/22 06:46:18;;;;;;;;;;;;;;;4.21;95.76;102614.81;5041495;27;20699;-67
2022/01/22 06:48:43;;;;;;;;;;;;;;;4.04;95.63;102600.47;5043830;27;20823;-68
2022/01/22 06:51:09;;;;;;;;;;;;;;;4.17;95.39;102606.19;5052668;27;21010;-68
2022/01/22 06:53:37;;;;;;;;;;;;;;;4.24;95.04;102607.69;5016070;27;20883;-68
2022/01/22 06:56:04;;;;;;;;;;;;;;;4.15;95.33;102617.66;5034796;27;19907;-67
2022/01/22 06:58:29;;;;;;;;;;;;;;;4.25;95.10;102609.41;5035160;27;19915;-68
2022/01/22 07:00:54;;;;;;;;;;;;;;;4.22;94.48;102608.69;5034727;27;19968;-69
2022/01/22 07:03:19;;;;;;;;;;;;;;;4.17;95.15;102618.44;5032400;27;20530;-68
2022/01/22 07:05:45;;;;;;;;;;;;;;;4.21;95.58;102618.28;5034853;27;19997;-68
2022/01/22 07:08:10;;;;;;;;;;;;;;;4.19;95.45;102621.84;5033923;27;19911;-68
2022/01/22 07:10:35;;;;;;;;;;;;;;;4.22;95.75;102608.69;5055127;27;20290;-68
2022/01/22 07:13:00;;;;;;;;;;;;;;;4.22;95.75;102621.78;5052451;27;20847;-68
2022/01/22 07:15:26;;;;;;;;;;;;;;;4.29;95.60;102620.69;5055401;27;20923;-68
2022/01/22 07:17:51;;;;;;;;;;;;;;;4.23;95.31;102626.09;5057504;27;20863;-67
2022/01/22 07:20:25;;;;;;;;;;;;;;;4.19;95.06;102630.59;5038721;27;19907;-67
2022/01/22 07:22:53;;;;;;;;;;;;;;;4.33;95.53;102635.41;5031828;27;19978;-68
2022/01/22 07:25:18;;;;;;;;;;;;;;;4.26;94.48;102636.50;5032557;27;19915;-66
2022/01/22 07:27:44;;;;;;;;;;;;;;;4.24;94.97;102639.16;5015248;27;19915;-67
2022/01/22 07:30:09;;;;;;;;;;;;;;;4.29;94.52;102645.09;5016475;27;20127;-67
2022/01/22 07:32:35;;;;;;;;;;;;;;;4.22;95.16;102646.22;5016360;27;19926;-67
2022/01/22 07:35:01;;;;;;;;;;;;;;;4.27;95.02;102648.69;5057525;27;19933;-66
2022/01/22 07:37:26;;;;;;;;;;;;;;;4.90;97.30;102653.63;5036575;27;20729;-69
2022/01/22 07:39:51;;;;;;;;;;;;;;;6.20;99.33;102644.47;5047674;27;20263;-69
2022/01/22 07:42:16;;;;;;;;;;;;;;;6.00;91.99;102653.16;5058864;27;19904;-67
2022/01/22 07:44:42;;;;;;;;;;;;;;;5.45;89.72;102654.28;5064941;27;19907;-68
2022/01/22 07:47:07;;;;;;;;;;;;;;;5.07;90.35;102659.13;5056954;27;19926;-67
2022/01/22 07:49:32;;;;;;;;;;;;;;;4.95;91.00;102656.94;5053839;27;19907;-68
2022/01/22 07:51:57;;;;;;;;;;;;;;;4.84;91.02;102653.81;5064265;27;20307;-67
2022/01/22 07:54:24;;;;;;;;;;;;;;;4.74;91.57;102653.28;5064685;27;20039;-67
2022/01/22 07:56:49;;;;;;;;;;;;;;;4.73;91.89;102652.41;5065186;27;19987;-67
2022/01/22 07:59:14;;;;;;;;;;;;;;;4.70;92.87;102649.06;5045514;27;20506;-67
2022/01/22 08:01:39;;;;;;;;;;;;;;;4.74;92.21;102648.06;5038606;27;20496;-67
2022/01/22 08:04:04;;;;;;;;;;;;;;;4.59;92.77;102655.50;5060768;27;19927;-67
2022/01/22 08:06:30;;;;;;;;;;;;;;;4.56;93.50;102652.13;5060109;27;19903;-67
2022/01/22 08:08:55;;;;;;;;;;;;;;;4.51;93.27;102656.66;5057985;27;20003;-67
2022/01/22 08:11:20;;;;;;;;;;;;;;;4.57;93.83;102656.44;5057613;27;20253;-66
2022/01/22 08:13:45;;;;;;;;;;;;;;;4.52;94.31;102653.16;5050705;27;20408;-65
2022/01/22 08:16:11;;;;;;;;;;;;;;;4.44;94.25;102659.50;5055782;27;19915;-68
2022/01/22 08:18:36;;;;;;;;;;;;;;;4.59;94.79;102655.50;5047686;27;19911;-67
2022/01/22 08:21:01;;;;;;;;;;;;;;;4.55;94.19;102667.00;5027705;27;19907;-66
2022/01/22 08:23:27;;;;;;;;;;;;;;;4.54;93.82;102664.41;5051102;27;20048;-67
2022/01/22 08:25:52;;;;;;;;;;;;;;;4.61;94.00;102668.56;5048414;27;19916;-66
2022/01/22 08:31:06;;;;;;;;;;;;;;;4.71;93.79;102659.50;5038261;27;19917;-67
2022/01/22 08:35:52;;;;;;;;;;;;;;;4.81;92.98;102671.38;5041302;27;19938;-67
2022/01/22 08:36:19;;;;;;;;;;;;;;;4.79;93.17;102667.97;5046419;27;19976;-68
2022/01/22 08:38:44;;;;;;;;;;;;;;;4.90;93.35;102664.13;5051961;27;20371;-67
2022/01/22 08:41:10;;;;;;;;;;;;;;;4.80;93.21;102668.81;5035324;27;20489;-67
2022/01/22 08:43:35;;;;;;;;;;;;;;;4.75;92.92;102673.34;5023112;27;20144;-67
2022/01/22 08:46:02;;;;;;;;;;;;;;;4.73;93.76;102667.31;5045516;27;20016;-66
2022/01/22 08:48:27;;;;;;;;;;;;;;;5.00;93.33;102665.50;5046615;27;19976;-64
2022/01/22 08:50:53;;;;;;;;;;;;;;;4.90;93.27;102664.97;5046973;27;20374;-66
2022/01/22 08:53:18;;;;;;;;;;;;;;;4.82;93.90;102678.34;5055908;27;20036;-69
2022/01/22 08:55:43;;;;;;;;;;;;;;;4.77;94.08;102677.63;5021696;27;20730;-66
2022/01/22 08:58:08;;;;;;;;;;;;;;;4.86;93.98;102676.47;5021423;27;19903;-69
2022/01/22 09:00:34;;;;;;;;;;;;;;;4.86;93.94;102668.59;5039683;27;19911;-67
2022/01/22 09:02:59;;;;;;;;;;;;;;;4.93;94.13;102679.75;5024839;27;20322;-66
2022/01/22 09:05:31;;;;;;;;;;;;;;;5.05;93.20;102674.09;5056845;27;19911;-68
2022/01/22 09:07:56;;;;;;;;;;;;;;;5.03;92.83;102673.25;5055655;27;20049;-67
2022/01/22 09:10:21;;;;;;;;;;;;;;;5.18;92.62;102673.66;5045189;27;19911;-67
2022/01/22 09:12:47;;;;;;;;;;;;;;;5.40;92.77;102679.00;5049063;27;19917;-67
2022/01/22 09:15:12;;;;;;;;;;;;;;;5.48;91.66;102684.81;5036433;27;19919;-66
2022/01/22 09:17:37;;;;;;;;;;;;;;;5.81;90.04;102677.47;5054807;27;19918;-67
2022/01/22 09:20:06;;;;;;;;;;;;;;;6.04;88.76;102675.75;5057050;27;19918;-67
2022/01/22 09:22:31;;;;;;;;;;;;;;;6.07;88.66;102674.78;5041859;27;20019;-69
2022/01/22 09:24:56;;;;;;;;;;;;;;;6.00;88.68;102679.44;5052274;27;19911;-69
2022/01/22 09:27:22;;;;;;;;;;;;;;;5.92;88.39;102676.19;5038493;27;20321;-69
2022/01/22 09:29:48;;;;;;;;;;;;;;;5.92;89.28;102676.19;5037275;27;19934;-69
2022/01/22 09:32:13;;;;;;;;;;;;;;;6.35;89.05;102677.19;5056365;27;19927;-69
2022/01/22 09:34:40;;;;;;;;;;;;;;;6.41;86.68;102682.19;5033294;27;19949;-67
2022/01/22 09:37:05;;;;;;;;;;;;;;;6.32;87.88;102678.16;5049522;27;19976;-68
2022/01/22 09:39:30;;;;;;;;;;;;;;;6.29;87.35;102688.81;5031508;27;20208;-68
2022/01/22 09:41:55;;;;;;;;;;;;;;;6.32;88.42;102693.09;5031920;27;20076;-68
2022/01/22 09:44:21;;;;;;;;;;;;;;;6.27;88.73;102685.38;5034440;27;19919;-67
2022/01/22 09:46:46;;;;;;;;;;;;;;;6.21;88.94;102687.41;5049324;27;19971;-68
2022/01/22 09:49:12;;;;;;;;;;;;;;;6.39;88.40;102696.31;5036776;27;19911;-69
2022/01/22 09:51:37;;;;;;;;;;;;;;;6.29;87.26;102699.31;5034609;27;20708;-68
2022/01/22 09:54:02;;;;;;;;;;;;;;;6.30;87.80;102697.53;5058822;27;19919;-69
2022/01/22 09:56:30;;;;;;;;;;;;;;;6.34;87.23;102709.66;5017811;27;19914;-67
2022/01/22 09:58:55;;;;;;;;;;;;;;;6.34;87.65;102699.97;5042177;27;20357;-68
2022/01/22 10:01:22;;;;;;;;;;;;;;;6.17;88.29;102692.75;5038309;27;19944;-67
2022/01/22 10:03:47;;;;;;;;;;;;;;;5.99;87.54;102696.09;5029010;27;19956;-67
2022/01/22 10:06:16;;;;;;;;;;;;;;;6.05;87.58;102706.41;5036163;27;20020;-67
2022/01/22 10:08:42;;;;;;;;;;;;;;;5.97;87.88;102703.16;5036709;27;19919;-67
2022/01/22 10:11:14;;;;;;;;;;;;;;;6.08;88.26;102698.38;5037197;27;20979;-69
2022/01/22 10:13:43;;;;;;;;;;;;;;;6.16;87.98;102709.47;5017102;27;20574;-69
2022/01/22 10:16:15;;;;;;;;;;;;;;;6.29;87.49;102714.22;5049377;27;20640;-68
2022/01/22 10:18:40;;;;;;;;;;;;;;;6.28;87.41;102704.66;5065014;27;20146;-69
2022/01/22 10:21:13;;;;;;;;;;;;;;;6.36;87.51;102710.47;5033734;27;19933;-69
2022/01/22 10:23:39;;;;;;;;;;;;;;;6.50;87.48;102704.63;5026560;27;20317;-66
2022/01/22 10:26:07;;;;;;;;;;;;;;;6.56;87.03;102703.53;5027658;27;19949;-66
2022/01/22 10:28:39;;;;;;;;;;;;;;;6.84;86.25;102708.53;5029556;27;20364;-67
2022/01/22 10:31:07;;;;;;;;;;;;;;;6.61;85.87;102702.41;5048628;27;19960;-67
2022/01/22 10:33:34;;;;;;;;;;;;;;;6.40;87.08;102708.56;5018652;27;20860;-69
2022/01/22 10:36:16;;;;;;;;;;;;;;;6.46;87.28;102700.44;5040163;27;20405;-69
2022/01/22 10:38:41;;;;;;;;;;;;;;;6.63;86.32;102702.38;5052271;27;19907;-66
2022/01/22 10:41:07;;;;;;;;;;;;;;;6.48;87.05;102702.06;5058799;27;20061;-68
2022/01/22 10:43:34;;;;;;;;;;;;;;;6.55;87.69;102701.84;5030239;28;19907;-66
2022/01/22 10:48:57;;;;;;;;;;;;;;;6.37;89.00;102701.63;5038004;27;19907;-67
2022/01/22 10:51:23;;;;;;;;;;;;;;;6.28;88.04;102702.00;5059514;27;19914;-68
2022/01/22 10:53:50;;;;;;;;;;;;;;;6.34;88.26;102705.22;5053864;27;19923;-66
2022/01/22 10:56:17;;;;;;;;;;;;;;;6.29;88.45;102706.34;5013963;28;19908;-67
2022/01/22 10:58:53;;;;;;;;;;;;;;;6.40;88.52;102705.91;5036318;27;20019;-67
2022/01/22 11:01:18;;;;;;;;;;;;;;;6.56;87.03;102701.75;5032057;27;19919;-67
2022/01/22 11:03:43;;;;;;;;;;;;;;;6.61;87.17;102697.16;5018711;28;20385;-67
2022/01/22 11:06:22;;;;;;;;;;;;;;;6.56;86.29;102698.25;5034414;27;19912;-67
2022/01/22 11:08:48;;;;;;;;;;;;;;;6.38;86.70;102695.47;5055168;27;20103;-67
2022/01/22 11:11:13;;;;;;;;;;;;;;;6.36;87.52;102692.06;5052965;27;20484;-67
2022/01/22 11:13:38;;;;;;;;;;;;;;;6.29;87.75;102696.69;5035035;27;20971;-67
2022/01/22 11:16:03;;;;;;;;;;;;;;;6.19;87.86;102690.94;5049977;27;20037;-67
2022/01/22 11:18:29;;;;;;;;;;;;;;;6.36;87.87;102692.91;5053398;27;20478;-67
2022/01/22 11:20:54;;;;;;;;;;;;;;;6.48;87.10;102686.28;5031598;27;19953;-66
2022/01/22 11:23:19;;;;;;;;;;;;;;;6.53;86.70;102686.13;5052501;27;20016;-66
2022/01/22 11:25:44;;;;;;;;;;;;;;;6.58;87.47;102688.56;5031255;27;20036;-68
2022/01/22 11:28:10;;;;;;;;;;;;;;;6.42;87.55;102691.78;5034013;27;19900;-69
2022/01/22 11:30:35;;;;;;;;;;;;;;;6.66;87.14;102700.47;5016359;27;20710;-68
2022/01/22 11:33:02;;;;;;;;;;;;;;;6.77;86.16;102699.16;5050579;27;20271;-68
2022/01/22 11:35:36;;;;;;;;;;;;;;;6.75;86.09;102693.97;5034508;27;20713;-69
2022/01/22 11:38:05;;;;;;;;;;;;;;;6.80;85.61;102707.78;5034514;27;20690;-67
2022/01/22 11:40:33;;;;;;;;;;;;;;;6.92;85.58;102695.88;5036762;27;19907;-67
2022/01/22 11:43:23;;;;;;;;;;;;;;;7.03;85.15;102703.34;5036500;27;20788;-65
2022/01/22 11:45:51;;;;;;;;;;;;;;;6.91;84.85;102701.22;5054120;27;20365;-67
2022/01/22 11:48:17;;;;;;;;;;;;;;;7.07;85.52;102689.13;5038953;27;19914;-66
2022/01/22 11:50:43;;;;;;;;;;;;;;;7.35;84.61;102688.78;5055602;27;19915;-66
2022/01/22 11:53:24;;;;;;;;;;;;;;;7.46;83.47;102684.81;5036681;27;19929;-66
2022/01/22 11:56:08;;;;;;;;;;;;;;;7.42;83.49;102684.09;5018344;27;19915;-66
2022/01/22 11:58:54;;;;;;;;;;;;;;;7.06;84.16;102671.59;5055721;27;20729;-67
2022/01/22 12:01:37;;;;;;;;;;;;;;;7.03;84.01;102677.00;5051705;27;19934;-66
2022/01/22 12:04:03;;;;;;;;;;;;;;;7.21;84.45;102685.91;5053464;27;19904;-66
2022/01/22 12:06:28;;;;;;;;;;;;;;;6.92;84.81;102689.78;5039705;27;20337;-67
2022/01/22 12:09:15;;;;;;;;;;;;;;;7.13;85.40;102685.38;5052920;27;19919;-67
2022/01/22 12:14:46;;;;;;;;;;;;;;;7.03;85.06;102692.81;5039775;27;19972;-68
2022/01/22 12:17:18;;;;;;;;;;;;;;;6.80;85.62;102692.00;5055937;27;19903;-66
2022/01/22 12:22:35;;;;;;;;;;;;;;;6.75;86.05;102691.31;5058092;27;20822;-66
2022/01/22 12:25:02;;;;;;;;;;;;;;;6.67;86.84;102686.41;5056656;27;19913;-67
2022/01/22 12:27:47;;;;;;;;;;;;;;;6.71;86.68;102695.00;5036431;27;19903;-68
2022/01/22 12:30:13;;;;;;;;;;;;;;;6.40;87.79;102688.34;5055022;27;21003;-69
2022/01/22 12:32:48;;;;;;;;;;;;;;;6.35;87.99;102688.56;5053371;27;20032;-68
2022/01/22 12:35:16;;;;;;;;;;;;;;;6.25;88.59;102689.84;5030568;27;20066;-68
2022/01/22 12:37:45;;;;;;;;;;;;;;;6.25;88.39;102694.25;5048313;27;19908;-67
2022/01/22 12:40:10;;;;;;;;;;;;;;;6.59;88.40;102690.28;5050703;27;19915;-68
2022/01/22 12:43:01;;;;;;;;;;;;;;;6.61;88.00;102691.03;5038007;27;20234;-68
2022/01/22 12:45:26;;;;;;;;;;;;;;;6.65;87.92;102682.13;5051934;27;19984;-69
2022/01/22 12:47:52;;;;;;;;;;;;;;;6.57;87.46;102690.34;5034352;27;20439;-68
2022/01/22 12:50:22;;;;;;;;;;;;;;;6.49;87.46;102688.00;5032423;27;20250;-68
2022/01/22 12:52:48;;;;;;;;;;;;;;;6.52;87.69;102687.88;5031387;27;19908;-66
2022/01/22 12:55:14;;;;;;;;;;;;;;;6.68;87.78;102692.50;5051248;27;19923;-67
2022/01/22 12:57:43;;;;;;;;;;;;;;;6.74;87.27;102694.91;5055875;27;20812;-67
2022/01/22 13:00:14;;;;;;;;;;;;;;;6.66;86.54;102694.34;5055040;27;20705;-66
2022/01/22 13:02:43;;;;;;;;;;;;;;;6.78;87.15;102688.59;5034901;27;20308;-67
2022/01/22 13:05:09;;;;;;;;;;;;;;;6.78;86.58;102693.84;5036040;27;19916;-67
2022/01/22 13:07:40;;;;;;;;;;;;;;;6.66;86.60;102700.47;5020950;27;20954;-67
2022/01/22 13:10:07;;;;;;;;;;;;;;;6.45;87.37;102685.56;5050284;27;19919;-67
2022/01/22 13:12:36;;;;;;;;;;;;;;;6.56;87.87;102685.09;5053792;27;19908;-67
2022/01/22 13:15:01;;;;;;;;;;;;;;;6.68;86.89;102697.75;5055879;27;20497;-67
2022/01/22 13:17:30;;;;;;;;;;;;;;;6.52;86.59;102701.03;5018101;27;20127;-66
2022/01/22 13:19:56;;;;;;;;;;;;;;;6.83;87.10;102698.91;5054518;27;19923;-66
2022/01/22 13:22:29;;;;;;;;;;;;;;;6.67;86.47;102694.28;5044103;27;20675;-67
2022/01/22 13:25:01;;;;;;;;;;;;;;;6.74;86.15;102694.91;5029168;27;19903;-67
2022/01/22 13:27:26;;;;;;;;;;;;;;;6.67;86.33;102690.78;5044551;27;19900;-68
2022/01/22 13:29:54;;;;;;;;;;;;;;;6.64;86.12;102697.06;5049643;27;19937;-68
2022/01/22 13:35:15;;;;;;;;;;;;;;;6.57;87.04;102694.72;5059939;27;19927;-67
2022/01/22 13:40:31;;;;;;;;;;;;;;;6.45;86.48;102688.19;5054747;27;19914;-67
2022/01/22 13:48:24;;;;;;;;;;;;;;;6.63;86.68;102691.84;5065038;27;19944;-66
2022/01/22 13:50:50;;;;;;;;;;;;;;;6.84;87.00;102693.59;5052755;27;19922;-67
2022/01/22 13:53:15;;;;;;;;;;;;;;;6.99;85.83;102693.84;5030282;27;19908;-67
2022/01/22 13:55:41;;;;;;;;;;;;;;;7.05;85.37;102701.50;5031114;27;19904;-67
2022/01/22 13:58:16;;;;;;;;;;;;;;;6.80;85.48;102699.91;5030706;27;19904;-67
2022/01/22 14:00:43;;;;;;;;;;;;;;;6.84;86.53;102698.84;5030646;27;19912;-68
2022/01/22 14:03:28;;;;;;;;;;;;;;;7.00;85.80;102695.56;5036055;27;19926;-67
2022/01/22 14:05:53;;;;;;;;;;;;;;;6.94;85.68;102698.44;5027446;27;19904;-68
2022/01/22 14:08:29;;;;;;;;;;;;;;;6.71;85.97;102702.91;5034187;27;19938;-67
2022/01/22 14:11:01;;;;;;;;;;;;;;;6.86;86.77;102697.00;5033506;27;19949;-66
2022/01/22 14:13:26;;;;;;;;;;;;;;;6.84;86.11;102692.75;5029555;27;19923;-67
2022/01/22 14:15:51;;;;;;;;;;;;;;;6.78;86.41;102692.97;5011525;27;20204;-67
2022/01/22 14:18:22;;;;;;;;;;;;;;;6.73;86.57;102690.53;5033273;27;20326;-66
2022/01/22 14:20:48;;;;;;;;;;;;;;;6.77;86.77;102689.50;5031783;27;19914;-66
2022/01/22 14:23:20;;;;;;;;;;;;;;;6.94;86.55;102691.44;5040505;27;19927;-67
2022/01/22 14:25:55;;;;;;;;;;;;;;;6.86;86.18;102697.00;5028443;27;20727;-65
2022/01/22 14:28:44;;;;;;;;;;;;;;;6.75;86.16;102699.22;5031850;27;19922;-66
2022/01/22 14:31:24;;;;;;;;;;;;;;;6.92;86.92;102693.25;5029524;27;19919;-68